sensor_id;sensor_type;location;lat;lon;timestamp;P1;durP1;ratioP1;P2;durP2;ratioP2
25437;SDS011;13364;49.084;9.978;2023-02-01T00:00:31;8.23;;;4.53;;
25437;SDS011;13364;49.084;9.978;2023-02-01T00:03:00;5.97;;;3.53;;
25437;SDS011;13364;49.084;9.978;2023-02-01T00:05:27;7.40;;;4.57;;
25437;SDS011;13364;49.084;9.978;2023-02-01T00:07:54;8.07;;;5.32;;
25437;SDS011;13364;49.084;9.978;2023-02-01T00:10:22;6.13;;;4.05;;
25437;SDS011;13364;49.084;9.978;2023-02-01T00:12:53;9.32;;;6.13;;
25437;SDS011;13364;49.084;9.978;2023-02-01T00:15:20;11.20;;;5.53;;
25437;SDS011;13364;49.084;9.978;2023-02-01T00:17:47;7.53;;;5.50;;
25437;SDS011;13364;49.084;9.978;2023-02-01T00:20:14;7.03;;;4.80;;
25437;SDS011;13364;49.084;9.978;2023-02-01T00:22:41;11.13;;;6.10;;
25437;SDS011;13364;49.084;9.978;2023-02-01T00:25:08;8.90;;;5.57;;
25437;SDS011;13364;49.084;9.978;2023-02-01T00:27:35;10.10;;;6.13;;
25437;SDS011;13364;49.084;9.978;2023-02-01T00:30:02;8.93;;;5.78;;
25437;SDS011;13364;49.084;9.978;2023-02-01T00:32:29;9.05;;;6.22;;
25437;SDS011;13364;49.084;9.978;2023-02-01T00:34:58;10.17;;;6.67;;
25437;SDS011;13364;49.084;9.978;2023-02-01T00:37:25;8.05;;;5.47;;
25437;SDS011;13364;49.084;9.978;2023-02-01T00:39:52;7.15;;;4.15;;
25437;SDS011;13364;49.084;9.978;2023-02-01T00:42:22;7.30;;;4.63;;
25437;SDS011;13364;49.084;9.978;2023-02-01T00:48:37;14.73;;;7.05;;
25437;SDS011;13364;49.084;9.978;2023-02-01T00:51:06;8.77;;;6.15;;
25437;SDS011;13364;49.084;9.978;2023-02-01T00:53:34;11.68;;;7.05;;
25437;SDS011;13364;49.084;9.978;2023-02-01T00:56:02;11.07;;;6.18;;
25437;SDS011;13364;49.084;9.978;2023-02-01T00:58:30;12.30;;;6.50;;
25437;SDS011;13364;49.084;9.978;2023-02-01T01:01:09;13.35;;;7.10;;
25437;SDS011;13364;49.084;9.978;2023-02-01T01:03:39;10.00;;;6.75;;
25437;SDS011;13364;49.084;9.978;2023-02-01T01:06:09;8.95;;;5.07;;
25437;SDS011;13364;49.084;9.978;2023-02-01T01:08:39;8.77;;;6.35;;
25437;SDS011;13364;49.084;9.978;2023-02-01T01:13:38;12.13;;;7.40;;
25437;SDS011;13364;49.084;9.978;2023-02-01T01:16:07;11.20;;;6.85;;
25437;SDS011;13364;49.084;9.978;2023-02-01T01:18:36;10.85;;;6.90;;
25437;SDS011;13364;49.084;9.978;2023-02-01T01:21:04;9.65;;;5.75;;
25437;SDS011;13364;49.084;9.978;2023-02-01T01:23:33;10.73;;;7.57;;
25437;SDS011;13364;49.084;9.978;2023-02-01T01:26:04;8.55;;;5.15;;
25437;SDS011;13364;49.084;9.978;2023-02-01T01:28:33;9.80;;;6.68;;
25437;SDS011;13364;49.084;9.978;2023-02-01T01:31:00;8.77;;;6.13;;
25437;SDS011;13364;49.084;9.978;2023-02-01T01:33:27;8.45;;;5.45;;
25437;SDS011;13364;49.084;9.978;2023-02-01T01:35:54;8.55;;;5.35;;
25437;SDS011;13364;49.084;9.978;2023-02-01T01:38:21;8.68;;;5.43;;
25437;SDS011;13364;49.084;9.978;2023-02-01T01:40:49;10.38;;;6.75;;
25437;SDS011;13364;49.084;9.978;2023-02-01T01:43:17;7.60;;;4.78;;
25437;SDS011;13364;49.084;9.978;2023-02-01T01:45:51;10.30;;;6.00;;
25437;SDS011;13364;49.084;9.978;2023-02-01T01:50:50;7.65;;;5.18;;
25437;SDS011;13364;49.084;9.978;2023-02-01T01:53:23;10.43;;;6.22;;
25437;SDS011;13364;49.084;9.978;2023-02-01T01:55:54;9.93;;;6.45;;
25437;SDS011;13364;49.084;9.978;2023-02-01T01:58:24;6.32;;;3.30;;
25437;SDS011;13364;49.084;9.978;2023-02-01T02:00:54;7.50;;;5.15;;
25437;SDS011;13364;49.084;9.978;2023-02-01T02:05:52;10.35;;;6.45;;
25437;SDS011;13364;49.084;9.978;2023-02-01T02:08:22;10.77;;;5.22;;
25437;SDS011;13364;49.084;9.978;2023-02-01T02:10:52;10.15;;;6.03;;
25437;SDS011;13364;49.084;9.978;2023-02-01T02:13:38;7.35;;;4.93;;
25437;SDS011;13364;49.084;9.978;2023-02-01T02:31:30;10.20;;;5.53;;
25437;SDS011;13364;49.084;9.978;2023-02-01T02:41:19;8.23;;;5.25;;
25437;SDS011;13364;49.084;9.978;2023-02-01T02:44:13;9.48;;;5.93;;
25437;SDS011;13364;49.084;9.978;2023-02-01T02:47:22;12.18;;;6.00;;
25437;SDS011;13364;49.084;9.978;2023-02-01T02:49:55;8.30;;;6.07;;
25437;SDS011;13364;49.084;9.978;2023-02-01T02:52:48;8.90;;;5.82;;
25437;SDS011;13364;49.084;9.978;2023-02-01T02:55:49;8.23;;;5.32;;
25437;SDS011;13364;49.084;9.978;2023-02-01T02:58:18;9.40;;;5.40;;
25437;SDS011;13364;49.084;9.978;2023-02-01T03:01:04;9.90;;;5.75;;
25437;SDS011;13364;49.084;9.978;2023-02-01T03:03:50;9.68;;;5.63;;
25437;SDS011;13364;49.084;9.978;2023-02-01T03:06:37;8.93;;;5.60;;
25437;SDS011;13364;49.084;9.978;2023-02-01T03:09:06;6.95;;;5.30;;
25437;SDS011;13364;49.084;9.978;2023-02-01T03:11:40;9.80;;;5.38;;
25437;SDS011;13364;49.084;9.978;2023-02-01T03:14:30;8.27;;;5.20;;
25437;SDS011;13364;49.084;9.978;2023-02-01T03:17:10;8.10;;;5.68;;
25437;SDS011;13364;49.084;9.978;2023-02-01T03:19:42;9.25;;;5.80;;
25437;SDS011;13364;49.084;9.978;2023-02-01T03:22:23;10.38;;;6.05;;
25437;SDS011;13364;49.084;9.978;2023-02-01T03:24:57;7.20;;;5.65;;
25437;SDS011;13364;49.084;9.978;2023-02-01T03:27:32;8.15;;;5.90;;
25437;SDS011;13364;49.084;9.978;2023-02-01T03:30:15;6.68;;;5.15;;
25437;SDS011;13364;49.084;9.978;2023-02-01T03:32:51;6.80;;;4.55;;
25437;SDS011;13364;49.084;9.978;2023-02-01T03:38:08;6.85;;;5.15;;
25437;SDS011;13364;49.084;9.978;2023-02-01T03:46:35;6.88;;;4.90;;
25437;SDS011;13364;49.084;9.978;2023-02-01T03:49:08;5.97;;;4.80;;
25437;SDS011;13364;49.084;9.978;2023-02-01T03:51:38;8.30;;;4.93;;
25437;SDS011;13364;49.084;9.978;2023-02-01T03:54:09;6.95;;;4.88;;
25437;SDS011;13364;49.084;9.978;2023-02-01T03:56:40;7.38;;;5.18;;
25437;SDS011;13364;49.084;9.978;2023-02-01T03:59:10;11.10;;;6.35;;
25437;SDS011;13364;49.084;9.978;2023-02-01T04:01:39;8.15;;;5.40;;
25437;SDS011;13364;49.084;9.978;2023-02-01T04:04:07;8.02;;;5.03;;
25437;SDS011;13364;49.084;9.978;2023-02-01T04:06:37;5.07;;;3.65;;
25437;SDS011;13364;49.084;9.978;2023-02-01T04:09:04;5.18;;;3.30;;
25437;SDS011;13364;49.084;9.978;2023-02-01T04:11:31;7.75;;;4.25;;
25437;SDS011;13364;49.084;9.978;2023-02-01T04:13:58;6.53;;;4.40;;
25437;SDS011;13364;49.084;9.978;2023-02-01T04:16:31;6.82;;;4.30;;
25437;SDS011;13364;49.084;9.978;2023-02-01T04:18:58;5.03;;;4.40;;
25437;SDS011;13364;49.084;9.978;2023-02-01T04:21:26;4.97;;;3.17;;
25437;SDS011;13364;49.084;9.978;2023-02-01T04:23:54;6.00;;;4.20;;
25437;SDS011;13364;49.084;9.978;2023-02-01T04:26:21;5.32;;;3.65;;
25437;SDS011;13364;49.084;9.978;2023-02-01T04:28:48;6.50;;;4.57;;
25437;SDS011;13364;49.084;9.978;2023-02-01T04:31:16;5.15;;;3.03;;
25437;SDS011;13364;49.084;9.978;2023-02-01T04:33:52;5.18;;;4.10;;
25437;SDS011;13364;49.084;9.978;2023-02-01T04:36:20;6.82;;;4.72;;
25437;SDS011;13364;49.084;9.978;2023-02-01T04:38:49;7.28;;;4.90;;
25437;SDS011;13364;49.084;9.978;2023-02-01T04:41:17;6.30;;;4.78;;
25437;SDS011;13364;49.084;9.978;2023-02-01T04:43:49;6.55;;;4.70;;
25437;SDS011;13364;49.084;9.978;2023-02-01T04:46:17;4.07;;;2.97;;
25437;SDS011;13364;49.084;9.978;2023-02-01T04:48:44;5.13;;;4.38;;
25437;SDS011;13364;49.084;9.978;2023-02-01T04:51:11;6.80;;;4.85;;
25437;SDS011;13364;49.084;9.978;2023-02-01T04:57:04;3.70;;;3.13;;
25437;SDS011;13364;49.084;9.978;2023-02-01T04:59:31;6.53;;;3.70;;
25437;SDS011;13364;49.084;9.978;2023-02-01T05:01:58;5.53;;;2.92;;
25437;SDS011;13364;49.084;9.978;2023-02-01T05:04:28;4.68;;;4.18;;
25437;SDS011;13364;49.084;9.978;2023-02-01T05:06:55;6.32;;;4.68;;
25437;SDS011;13364;49.084;9.978;2023-02-01T05:09:22;5.15;;;3.47;;
25437;SDS011;13364;49.084;9.978;2023-02-01T05:11:49;6.18;;;4.85;;
25437;SDS011;13364;49.084;9.978;2023-02-01T05:14:45;8.73;;;4.25;;
25437;SDS011;13364;49.084;9.978;2023-02-01T05:17:14;6.60;;;4.15;;
25437;SDS011;13364;49.084;9.978;2023-02-01T05:19:41;6.68;;;5.35;;
25437;SDS011;13364;49.084;9.978;2023-02-01T05:22:08;7.88;;;5.15;;
25437;SDS011;13364;49.084;9.978;2023-02-01T05:24:35;8.25;;;5.20;;
25437;SDS011;13364;49.084;9.978;2023-02-01T05:27:02;6.80;;;4.40;;
25437;SDS011;13364;49.084;9.978;2023-02-01T05:29:29;6.45;;;4.75;;
25437;SDS011;13364;49.084;9.978;2023-02-01T05:31:56;7.65;;;4.88;;
25437;SDS011;13364;49.084;9.978;2023-02-01T05:34:37;6.78;;;4.25;;
25437;SDS011;13364;49.084;9.978;2023-02-01T05:37:04;4.85;;;3.50;;
25437;SDS011;13364;49.084;9.978;2023-02-01T05:39:31;6.30;;;4.82;;
25437;SDS011;13364;49.084;9.978;2023-02-01T05:41:58;7.07;;;5.22;;
25437;SDS011;13364;49.084;9.978;2023-02-01T05:44:25;7.47;;;5.40;;
25437;SDS011;13364;49.084;9.978;2023-02-01T05:46:52;5.97;;;3.97;;
25437;SDS011;13364;49.084;9.978;2023-02-01T05:49:19;4.70;;;3.75;;
25437;SDS011;13364;49.084;9.978;2023-02-01T05:51:46;6.47;;;4.85;;
25437;SDS011;13364;49.084;9.978;2023-02-01T05:54:13;5.63;;;4.15;;
25437;SDS011;13364;49.084;9.978;2023-02-01T05:56:40;5.47;;;3.70;;
25437;SDS011;13364;49.084;9.978;2023-02-01T05:59:07;4.70;;;2.75;;
25437;SDS011;13364;49.084;9.978;2023-02-01T06:01:35;4.47;;;3.35;;
25437;SDS011;13364;49.084;9.978;2023-02-01T06:04:02;7.10;;;5.13;;
25437;SDS011;13364;49.084;9.978;2023-02-01T06:06:29;8.65;;;5.15;;
25437;SDS011;13364;49.084;9.978;2023-02-01T06:08:56;7.03;;;4.15;;
25437;SDS011;13364;49.084;9.978;2023-02-01T06:11:23;3.42;;;2.20;;
25437;SDS011;13364;49.084;9.978;2023-02-01T06:13:58;5.07;;;3.60;;
25437;SDS011;13364;49.084;9.978;2023-02-01T06:16:25;7.95;;;4.47;;
25437;SDS011;13364;49.084;9.978;2023-02-01T06:18:53;7.22;;;4.35;;
25437;SDS011;13364;49.084;9.978;2023-02-01T06:21:20;7.13;;;3.80;;
25437;SDS011;13364;49.084;9.978;2023-02-01T06:23:53;8.55;;;4.20;;
25437;SDS011;13364;49.084;9.978;2023-02-01T06:26:21;7.22;;;5.00;;
25437;SDS011;13364;49.084;9.978;2023-02-01T06:31:43;7.30;;;4.10;;
25437;SDS011;13364;49.084;9.978;2023-02-01T06:34:11;5.25;;;3.70;;
25437;SDS011;13364;49.084;9.978;2023-02-01T06:36:53;3.80;;;2.10;;
25437;SDS011;13364;49.084;9.978;2023-02-01T06:39:21;4.50;;;3.85;;
25437;SDS011;13364;49.084;9.978;2023-02-01T06:41:49;8.75;;;3.38;;
25437;SDS011;13364;49.084;9.978;2023-02-01T06:44:16;4.85;;;3.83;;
25437;SDS011;13364;49.084;9.978;2023-02-01T06:46:43;6.25;;;4.40;;
25437;SDS011;13364;49.084;9.978;2023-02-01T06:49:11;7.03;;;4.78;;
25437;SDS011;13364;49.084;9.978;2023-02-01T06:51:45;6.93;;;4.43;;
25437;SDS011;13364;49.084;9.978;2023-02-01T06:54:12;7.55;;;4.47;;
25437;SDS011;13364;49.084;9.978;2023-02-01T06:56:40;15.73;;;4.35;;
25437;SDS011;13364;49.084;9.978;2023-02-01T06:59:07;7.25;;;4.20;;
25437;SDS011;13364;49.084;9.978;2023-02-01T07:01:38;5.47;;;3.33;;
25437;SDS011;13364;49.084;9.978;2023-02-01T07:04:05;5.95;;;3.28;;
25437;SDS011;13364;49.084;9.978;2023-02-01T07:06:38;5.65;;;3.45;;
25437;SDS011;13364;49.084;9.978;2023-02-01T07:09:17;6.03;;;4.68;;
25437;SDS011;13364;49.084;9.978;2023-02-01T07:12:18;8.40;;;5.05;;
25437;SDS011;13364;49.084;9.978;2023-02-01T07:14:45;5.85;;;3.83;;
25437;SDS011;13364;49.084;9.978;2023-02-01T07:17:12;5.68;;;3.83;;
25437;SDS011;13364;49.084;9.978;2023-02-01T07:19:39;8.10;;;5.00;;
25437;SDS011;13364;49.084;9.978;2023-02-01T07:22:06;8.15;;;4.78;;
25437;SDS011;13364;49.084;9.978;2023-02-01T07:24:34;8.20;;;5.13;;
25437;SDS011;13364;49.084;9.978;2023-02-01T07:27:01;8.15;;;4.75;;
25437;SDS011;13364;49.084;9.978;2023-02-01T07:29:28;7.32;;;3.55;;
25437;SDS011;13364;49.084;9.978;2023-02-01T07:31:55;9.07;;;4.30;;
25437;SDS011;13364;49.084;9.978;2023-02-01T07:34:22;7.97;;;5.13;;
25437;SDS011;13364;49.084;9.978;2023-02-01T07:36:49;8.93;;;5.50;;
25437;SDS011;13364;49.084;9.978;2023-02-01T07:39:16;9.88;;;4.13;;
25437;SDS011;13364;49.084;9.978;2023-02-01T07:41:43;6.50;;;4.65;;
25437;SDS011;13364;49.084;9.978;2023-02-01T07:44:11;7.40;;;5.45;;
25437;SDS011;13364;49.084;9.978;2023-02-01T07:46:39;11.13;;;5.45;;
25437;SDS011;13364;49.084;9.978;2023-02-01T07:49:06;10.85;;;5.82;;
25437;SDS011;13364;49.084;9.978;2023-02-01T07:51:33;10.15;;;5.63;;
25437;SDS011;13364;49.084;9.978;2023-02-01T07:54:00;8.77;;;4.28;;
25437;SDS011;13364;49.084;9.978;2023-02-01T07:56:27;9.35;;;5.85;;
25437;SDS011;13364;49.084;9.978;2023-02-01T07:58:54;10.15;;;5.97;;
25437;SDS011;13364;49.084;9.978;2023-02-01T08:01:23;14.38;;;6.38;;
25437;SDS011;13364;49.084;9.978;2023-02-01T08:03:56;10.60;;;6.35;;
25437;SDS011;13364;49.084;9.978;2023-02-01T08:06:26;9.00;;;5.18;;
25437;SDS011;13364;49.084;9.978;2023-02-01T08:08:58;7.55;;;4.65;;
25437;SDS011;13364;49.084;9.978;2023-02-01T08:11:25;9.88;;;5.45;;
25437;SDS011;13364;49.084;9.978;2023-02-01T08:13:52;9.05;;;4.63;;
25437;SDS011;13364;49.084;9.978;2023-02-01T08:16:21;12.23;;;5.40;;
25437;SDS011;13364;49.084;9.978;2023-02-01T08:18:50;10.57;;;4.85;;
25437;SDS011;13364;49.084;9.978;2023-02-01T08:21:18;10.98;;;5.65;;
25437;SDS011;13364;49.084;9.978;2023-02-01T08:23:50;8.25;;;4.93;;
25437;SDS011;13364;49.084;9.978;2023-02-01T08:26:18;12.80;;;5.40;;
25437;SDS011;13364;49.084;9.978;2023-02-01T08:28:49;8.30;;;5.05;;
25437;SDS011;13364;49.084;9.978;2023-02-01T08:31:21;10.85;;;5.28;;
25437;SDS011;13364;49.084;9.978;2023-02-01T08:33:51;12.80;;;5.63;;
25437;SDS011;13364;49.084;9.978;2023-02-01T08:38:47;10.23;;;4.18;;
25437;SDS011;13364;49.084;9.978;2023-02-01T08:41:15;8.15;;;4.10;;
25437;SDS011;13364;49.084;9.978;2023-02-01T08:43:45;11.20;;;4.07;;
25437;SDS011;13364;49.084;9.978;2023-02-01T08:46:14;9.80;;;3.70;;
25437;SDS011;13364;49.084;9.978;2023-02-01T08:48:42;7.65;;;4.05;;
25437;SDS011;13364;49.084;9.978;2023-02-01T08:51:11;6.22;;;3.92;;
25437;SDS011;13364;49.084;9.978;2023-02-01T08:53:39;8.60;;;4.07;;
